createdAt,value
2017-08-17T00:01:28.266Z,98632.75
2017-08-17T00:03:56.612Z,98634.72
2017-08-17T00:06:24.936Z,98624.88
2017-08-17T00:08:53.290Z,98619.80
2017-08-17T00:11:21.654Z,98612.88
2017-08-17T00:13:49.982Z,98617.31
2017-08-17T00:16:18.331Z,98610.50
2017-08-17T00:18:46.663Z,98612.28
2017-08-17T00:21:15.018Z,98602.39
2017-08-17T00:23:43.367Z,98597.80
2017-08-17T00:26:11.692Z,98593.56
2017-08-17T00:28:40.023Z,98595.17
2017-08-17T00:31:08.352Z,98591.95
2017-08-17T00:33:37.347Z,98591.33
2017-08-17T00:36:05.666Z,98594.83
2017-08-17T00:38:34.005Z,98599.16
2017-08-17T00:41:02.360Z,98597.80
2017-08-17T00:43:30.692Z,98592.89
2017-08-17T00:45:59.041Z,98597.75
2017-08-17T00:48:27.369Z,98596.91
2017-08-17T00:50:55.965Z,98594.88
2017-08-17T00:53:24.300Z,98592.59
2017-08-17T00:55:52.661Z,98592.03
2017-08-17T00:58:21.823Z,98593.91
2017-08-17T01:00:50.163Z,98596.58
2017-08-17T01:03:18.513Z,98596.81
2017-08-17T01:05:46.850Z,98602.91
2017-08-17T01:08:15.199Z,98602.38
2017-08-17T01:10:43.529Z,98598.94
2017-08-17T01:13:11.862Z,98601.94
2017-08-17T01:15:40.200Z,98607.51
2017-08-17T01:18:08.517Z,98607.05
2017-08-17T01:20:36.872Z,98603.70
2017-08-17T01:23:05.198Z,98600.27
2017-08-17T01:25:33.783Z,98600.98
2017-08-17T01:28:02.117Z,98602.78
2017-08-17T01:30:30.444Z,98603.48
2017-08-17T01:32:58.793Z,98598.66
2017-08-17T01:35:27.134Z,98598.91
2017-08-17T01:37:55.481Z,98598.14
2017-08-17T01:40:23.831Z,98592.53
2017-08-17T01:42:52.430Z,98591.08
2017-08-17T01:45:20.759Z,98585.73
2017-08-17T01:47:49.078Z,98584.36
2017-08-17T01:50:18.005Z,98592.98
2017-08-17T01:52:46.327Z,98577.30
2017-08-17T01:55:14.678Z,98579.35
2017-08-17T01:57:43.002Z,98578.55
2017-08-17T02:00:16.926Z,98587.86
2017-08-17T02:02:45.302Z,98580.30
2017-08-17T02:05:13.674Z,98573.50
2017-08-17T02:07:42.038Z,98573.48
2017-08-17T02:10:11.028Z,98575.17
2017-08-17T02:12:39.380Z,98562.25
2017-08-17T02:15:07.723Z,98565.82
2017-08-17T02:17:36.352Z,98562.66
2017-08-17T02:20:04.688Z,98555.70
2017-08-17T02:22:33.016Z,98557.91
2017-08-17T02:25:01.369Z,98560.70
2017-08-17T02:27:29.703Z,98561.74
2017-08-17T02:29:58.084Z,98566.48
2017-08-17T02:32:26.432Z,98562.25
2017-08-17T02:34:54.807Z,98562.91
2017-08-17T02:37:23.166Z,98562.97
2017-08-17T02:39:51.524Z,98552.27
2017-08-17T02:42:19.867Z,98554.30
2017-08-17T02:44:48.204Z,98557.27
2017-08-17T02:47:16.553Z,98563.49
2017-08-17T02:49:44.883Z,98560.49
2017-08-17T02:52:13.220Z,98558.83
2017-08-17T02:54:41.547Z,98557.60
2017-08-17T02:57:09.904Z,98562.09
2017-08-17T02:59:38.248Z,98562.36
2017-08-17T03:02:06.597Z,98565.08
2017-08-17T03:04:34.948Z,98569.20
2017-08-17T03:07:03.309Z,98567.56
2017-08-17T03:09:31.924Z,98569.26
2017-08-17T03:12:00.257Z,98573.02
2017-08-17T03:14:28.597Z,98560.41
2017-08-17T03:16:56.939Z,98560.84
2017-08-17T03:19:25.262Z,98566.93
2017-08-17T03:21:53.610Z,98561.55
2017-08-17T03:24:21.995Z,98551.02
2017-08-17T03:26:50.346Z,98549.71
2017-08-17T03:29:18.687Z,98557.03
2017-08-17T03:31:47.032Z,98562.71
2017-08-17T03:34:15.363Z,98557.44
2017-08-17T03:36:43.692Z,98554.09
2017-08-17T03:39:12.037Z,98552.63
2017-08-17T03:41:40.362Z,98550.47
2017-08-17T03:44:08.739Z,98553.33
2017-08-17T03:46:37.082Z,98555.48
2017-08-17T03:49:05.438Z,98559.95
2017-08-17T03:51:33.793Z,98559.83
2017-08-17T03:54:02.115Z,98559.52
2017-08-17T03:56:30.472Z,98561.05
2017-08-17T03:58:58.796Z,98560.34
2017-08-17T04:01:27.153Z,98567.46
2017-08-17T04:03:55.491Z,98564.22
2017-08-17T04:06:23.828Z,98564.62
2017-08-17T04:08:52.176Z,98567.69
2017-08-17T04:11:20.509Z,98564.04
2017-08-17T04:13:49.146Z,98563.42
2017-08-17T04:16:17.479Z,98572.77
2017-08-17T04:18:45.873Z,98573.58
2017-08-17T04:21:14.248Z,98573.91
2017-08-17T04:23:42.578Z,98573.00
2017-08-17T04:26:10.929Z,98567.84
2017-08-17T04:28:39.271Z,98570.64
2017-08-17T04:31:08.049Z,98568.13
2017-08-17T04:33:36.409Z,98565.50
2017-08-17T04:36:04.794Z,98556.66
2017-08-17T04:38:33.163Z,98557.97
2017-08-17T04:41:01.510Z,98562.34
2017-08-17T04:43:30.254Z,98567.50
2017-08-17T04:45:58.577Z,98559.50
2017-08-17T04:48:26.900Z,98556.77
2017-08-17T04:50:56.028Z,98557.70
2017-08-17T04:53:24.364Z,98556.58
2017-08-17T04:55:52.715Z,98557.18
2017-08-17T04:58:43.612Z,98558.39
2017-08-17T05:01:12.269Z,98561.93
2017-08-17T05:03:40.646Z,98562.23
2017-08-17T05:06:08.983Z,98558.13
2017-08-17T05:08:37.364Z,98555.78
2017-08-17T05:11:05.710Z,98544.43
2017-08-17T05:13:34.065Z,98541.39
2017-08-17T05:16:02.387Z,98533.45
2017-08-17T05:18:31.127Z,98541.76
2017-08-17T05:21:00.747Z,98550.78
2017-08-17T05:23:29.082Z,98550.29
2017-08-17T05:25:57.430Z,98542.91
2017-08-17T05:28:25.760Z,98545.72
2017-08-17T05:30:54.116Z,98546.23
2017-08-17T05:33:22.457Z,98549.45
2017-08-17T05:35:51.107Z,98553.80
2017-08-17T05:38:19.432Z,98550.73
2017-08-17T05:40:47.782Z,98551.06
2017-08-17T05:43:16.161Z,98553.48
2017-08-17T05:45:44.507Z,98553.97
2017-08-17T05:48:12.865Z,98557.48
2017-08-17T05:50:41.400Z,98559.38
2017-08-17T05:53:09.747Z,98549.37
2017-08-17T05:55:38.068Z,98547.97
2017-08-17T05:58:06.416Z,98544.03
2017-08-17T06:00:35.523Z,98541.66
2017-08-17T06:03:03.857Z,98535.67
2017-08-17T06:05:32.189Z,98532.31
2017-08-17T06:08:01.285Z,98533.45
2017-08-17T06:10:29.934Z,98528.09
2017-08-17T06:12:58.264Z,98524.22
2017-08-17T06:15:26.609Z,98528.06
2017-08-17T06:17:54.956Z,98529.36
2017-08-17T06:20:23.276Z,98535.63
2017-08-17T06:22:51.607Z,98529.64
2017-08-17T06:25:23.811Z,98529.08
2017-08-17T06:27:53.544Z,98529.72
2017-08-17T06:30:21.868Z,98530.55
2017-08-17T06:32:50.185Z,98527.60
2017-08-17T06:35:18.533Z,98530.47
2017-08-17T06:37:46.865Z,98534.95
2017-08-17T06:40:15.232Z,98528.31
2017-08-17T06:42:44.279Z,98521.87
2017-08-17T06:45:13.153Z,98523.27
2017-08-17T06:47:41.490Z,98519.30
2017-08-17T06:50:09.829Z,98520.58
2017-08-17T06:52:38.180Z,98520.09
2017-08-17T06:55:06.510Z,98522.08
2017-08-17T06:57:34.868Z,98524.69
2017-08-17T07:00:03.204Z,98531.48
2017-08-17T07:02:31.573Z,98538.50
2017-08-17T07:04:59.903Z,98541.35
2017-08-17T07:07:28.234Z,98547.09
2017-08-17T07:09:56.573Z,98548.45
2017-08-17T07:12:24.909Z,98546.91
2017-08-17T07:14:53.252Z,98546.83
2017-08-17T07:17:21.613Z,98541.66
2017-08-17T07:19:49.977Z,98540.88
2017-08-17T07:22:18.354Z,98528.23
2017-08-17T07:24:46.693Z,98530.47
2017-08-17T07:27:15.061Z,98522.97
2017-08-17T07:29:43.404Z,98525.11
2017-08-17T07:32:11.760Z,98515.55
2017-08-17T07:34:40.101Z,98517.05
2017-08-17T07:37:08.808Z,98513.90
2017-08-17T07:39:37.131Z,98516.10
2017-08-17T07:42:05.460Z,98518.12
2017-08-17T07:44:34.562Z,98521.45
2017-08-17T07:47:02.882Z,98525.13
2017-08-17T07:49:31.240Z,98524.64
2017-08-17T07:51:59.577Z,98519.50
2017-08-17T07:54:28.534Z,98515.83
2017-08-17T07:56:56.864Z,98520.15
2017-08-17T07:59:25.230Z,98519.16
2017-08-17T08:01:53.596Z,98533.00
2017-08-17T08:04:21.946Z,98533.27
2017-08-17T08:06:50.306Z,98532.08
2017-08-17T08:09:18.659Z,98527.40
2017-08-17T08:11:46.993Z,98525.52
2017-08-17T08:14:15.343Z,98526.18
2017-08-17T08:16:43.674Z,98520.30
2017-08-17T08:19:12.033Z,98522.26
2017-08-17T08:21:40.357Z,98526.27
2017-08-17T08:24:08.986Z,98519.25
2017-08-17T08:26:37.343Z,98518.39
2017-08-17T08:29:05.681Z,98517.70
2017-08-17T08:31:34.029Z,98518.08
2017-08-17T08:34:02.356Z,98517.59
2017-08-17T08:36:31.467Z,98516.73
2017-08-17T08:39:00.638Z,98516.42
2017-08-17T08:41:29.459Z,98524.77
2017-08-17T08:43:57.779Z,98518.89
2017-08-17T08:46:26.172Z,98516.03
2017-08-17T08:48:54.526Z,98524.34
2017-08-17T08:51:22.859Z,98522.94
2017-08-17T08:53:51.987Z,98526.26
2017-08-17T08:56:20.312Z,98531.56
2017-08-17T08:58:48.682Z,98534.87
2017-08-17T09:01:17.018Z,98529.13
2017-08-17T09:03:45.381Z,98527.77
2017-08-17T09:06:14.497Z,98521.53
2017-08-17T09:08:42.829Z,98511.58
2017-08-17T09:11:11.176Z,98515.07
2017-08-17T09:13:39.544Z,98509.39
2017-08-17T09:16:08.186Z,98499.55
2017-08-17T09:18:36.516Z,98505.45
2017-08-17T09:21:04.852Z,98509.64
2017-08-17T09:23:33.196Z,98503.56
2017-08-17T09:26:01.508Z,98503.86
2017-08-17T09:28:29.846Z,98498.66
2017-08-17T09:30:58.201Z,98502.14
2017-08-17T09:33:26.813Z,98501.50
2017-08-17T09:35:55.149Z,98491.91
2017-08-17T09:38:23.492Z,98486.28
2017-08-17T09:40:51.837Z,98499.59
2017-08-17T09:43:20.177Z,98495.70
2017-08-17T09:45:48.530Z,98492.03
2017-08-17T09:48:16.846Z,98487.56
2017-08-17T09:50:45.510Z,98484.27
2017-08-17T09:53:13.833Z,98476.55
2017-08-17T09:55:42.155Z,98473.95
2017-08-17T09:58:10.504Z,98476.44
2017-08-17T10:00:38.827Z,98471.92
2017-08-17T10:03:07.173Z,98461.23
2017-08-17T10:05:35.517Z,98460.84
2017-08-17T10:08:04.288Z,98465.45
2017-08-17T10:10:32.635Z,98459.58
2017-08-17T10:13:00.983Z,98474.15
2017-08-17T10:15:29.347Z,98462.69
2017-08-17T10:17:57.702Z,98464.42
2017-08-17T10:20:26.802Z,98461.08
2017-08-17T10:22:55.114Z,98465.64
2017-08-17T10:25:23.930Z,98472.28
2017-08-17T10:27:52.269Z,98465.80
2017-08-17T10:30:20.606Z,98462.16
2017-08-17T10:32:49.011Z,98461.51
2017-08-17T10:35:17.350Z,98471.80
2017-08-17T10:37:45.697Z,98453.55
2017-08-17T10:40:14.034Z,98450.12
2017-08-17T10:42:43.174Z,98454.41
2017-08-17T10:45:11.526Z,98450.12
2017-08-17T10:47:39.876Z,98454.68
2017-08-17T10:50:08.228Z,98456.42
2017-08-17T10:52:36.564Z,98458.69
2017-08-17T10:55:06.492Z,98470.69
2017-08-17T10:57:34.820Z,98457.20
2017-08-17T11:00:03.593Z,98456.22
2017-08-17T11:02:31.914Z,98466.78
2017-08-17T11:05:01.022Z,98454.88
2017-08-17T11:07:29.362Z,98453.67
2017-08-17T11:09:57.735Z,98458.52
2017-08-17T11:12:26.093Z,98455.87
2017-08-17T11:14:54.421Z,98443.46
2017-08-17T11:17:22.775Z,98440.64
2017-08-17T11:19:51.136Z,98436.66
2017-08-17T11:22:19.494Z,98439.59
2017-08-17T11:24:47.868Z,98432.90
2017-08-17T11:27:16.205Z,98428.38
2017-08-17T11:29:44.550Z,98428.36
2017-08-17T11:32:12.885Z,98436.24
2017-08-17T11:34:41.240Z,98422.06
2017-08-17T11:37:10.429Z,98426.90
2017-08-17T11:39:38.787Z,98429.83
2017-08-17T11:42:07.956Z,98418.50
2017-08-17T11:44:36.284Z,98412.72
2017-08-17T11:47:04.629Z,98416.17
2017-08-17T11:49:32.960Z,98427.92
2017-08-17T11:52:01.563Z,98423.73
2017-08-17T11:54:29.934Z,98427.33
2017-08-17T11:56:58.274Z,98425.70
2017-08-17T11:59:26.622Z,98430.27
2017-08-17T12:01:54.967Z,98416.09
2017-08-17T12:04:23.306Z,98419.97
2017-08-17T12:06:51.622Z,98416.20
2017-08-17T12:09:19.982Z,98420.63
2017-08-17T12:11:48.366Z,98414.83
2017-08-17T12:14:16.688Z,98403.46
2017-08-17T12:16:45.050Z,98407.59
2017-08-17T12:19:13.392Z,98406.80
2017-08-17T12:21:41.748Z,98406.12
2017-08-17T12:24:10.802Z,98405.36
2017-08-17T12:26:39.175Z,98404.53
2017-08-17T12:29:07.512Z,98404.25
2017-08-17T12:31:35.873Z,98405.55
2017-08-17T12:34:04.221Z,98413.16
2017-08-17T12:36:32.565Z,98415.73
2017-08-17T12:39:01.294Z,98420.51
2017-08-17T12:41:29.625Z,98420.50
2017-08-17T12:43:57.979Z,98418.08
2017-08-17T12:46:26.408Z,98422.47
2017-08-17T12:48:54.734Z,98409.42
2017-08-17T12:51:23.938Z,98414.08
2017-08-17T12:53:52.270Z,98405.24
2017-08-17T12:56:20.855Z,98403.70
2017-08-17T12:58:49.199Z,98405.16
2017-08-17T13:01:17.515Z,98406.38
2017-08-17T13:03:45.862Z,98406.25
2017-08-17T13:06:14.197Z,98407.99
2017-08-17T13:08:42.569Z,98402.19
2017-08-17T13:11:10.934Z,98401.91
2017-08-17T13:13:39.552Z,98395.70
2017-08-17T13:16:07.867Z,98397.16
2017-08-17T13:18:36.212Z,98396.56
2017-08-17T13:21:05.327Z,98407.93
2017-08-17T13:23:33.670Z,98407.42
2017-08-17T13:26:02.073Z,98407.69
2017-08-17T13:28:30.418Z,98406.74
2017-08-17T13:30:59.148Z,98411.44
2017-08-17T13:33:27.519Z,98403.30
2017-08-17T13:35:55.867Z,98411.09
2017-08-17T13:38:24.235Z,98402.46
2017-08-17T13:40:52.562Z,98394.00
2017-08-17T13:43:20.897Z,98396.76
2017-08-17T13:45:49.250Z,98401.59
2017-08-17T13:48:18.036Z,98405.42
2017-08-17T13:50:46.369Z,98416.88
2017-08-17T13:53:15.474Z,98407.11
2017-08-17T13:55:43.821Z,98401.23
2017-08-17T13:58:12.170Z,98401.09
2017-08-17T14:00:40.530Z,98394.58
2017-08-17T14:03:08.872Z,98383.80
2017-08-17T14:05:37.216Z,98374.42
2017-08-17T14:08:05.558Z,98370.80
2017-08-17T14:10:33.921Z,98367.17
2017-08-17T14:13:02.264Z,98372.56
2017-08-17T14:15:30.608Z,98373.08
2017-08-17T14:17:58.965Z,98378.34
2017-08-17T14:20:27.293Z,98387.72
2017-08-17T14:22:55.639Z,98381.70
2017-08-17T14:25:29.846Z,98391.80
2017-08-17T14:27:58.310Z,98385.77
2017-08-17T14:30:27.018Z,98380.86
2017-08-17T14:32:55.353Z,98397.00
2017-08-17T14:35:23.683Z,98401.58
2017-08-17T14:37:52.029Z,98404.11
2017-08-17T14:40:20.370Z,98403.04
2017-08-17T14:42:49.231Z,98400.78
2017-08-17T14:45:17.576Z,98403.88
2017-08-17T14:47:45.918Z,98400.23
2017-08-17T14:50:14.272Z,98398.55
2017-08-17T14:52:42.606Z,98410.41
2017-08-17T14:55:11.050Z,98414.57
2017-08-17T14:57:39.408Z,98423.30
2017-08-17T15:00:07.755Z,98438.98
2017-08-17T15:02:36.225Z,98434.83
2017-08-17T15:05:04.593Z,98437.41
2017-08-17T15:07:32.929Z,98438.73
2017-08-17T15:10:01.701Z,98444.11
2017-08-17T15:12:30.040Z,98434.88
2017-08-17T15:14:58.393Z,98435.16
2017-08-17T15:17:26.804Z,98436.98
2017-08-17T15:19:55.141Z,98424.13
2017-08-17T15:22:23.926Z,98430.14
2017-08-17T15:24:52.351Z,98429.19
2017-08-17T15:27:20.683Z,98421.73
2017-08-17T15:29:49.552Z,98426.27
2017-08-17T15:32:18.311Z,98430.56
2017-08-17T15:34:50.346Z,98429.77
2017-08-17T15:37:19.405Z,98424.27
2017-08-17T15:39:48.170Z,98420.52
2017-08-17T15:42:32.475Z,98419.17
2017-08-17T15:45:08.627Z,98425.51
2017-08-17T15:47:37.536Z,98423.52
2017-08-17T15:50:05.911Z,98427.14
2017-08-17T15:52:34.244Z,98436.48
2017-08-17T15:55:02.593Z,98442.64
2017-08-17T15:57:30.929Z,98440.77
2017-08-17T16:00:00.091Z,98435.85
2017-08-17T16:02:28.449Z,98436.39
2017-08-17T16:04:56.793Z,98444.94
2017-08-17T16:07:25.175Z,98438.00
2017-08-17T16:09:53.521Z,98437.32
2017-08-17T16:12:21.912Z,98433.59
2017-08-17T16:14:50.255Z,98432.39
2017-08-17T16:17:18.635Z,98426.89
2017-08-17T16:19:47.001Z,98430.24
2017-08-17T16:22:15.395Z,98430.37
2017-08-17T16:24:43.736Z,98427.00
2017-08-17T16:27:12.081Z,98431.58
2017-08-17T16:29:40.435Z,98435.20
2017-08-17T16:32:09.341Z,98436.00
2017-08-17T16:34:37.668Z,98440.13
2017-08-17T16:37:05.983Z,98436.36
2017-08-17T16:39:34.385Z,98442.54
2017-08-17T16:42:02.765Z,98434.50
2017-08-17T16:44:32.718Z,98425.94
2017-08-17T16:47:01.100Z,98422.94
2017-08-17T16:49:29.462Z,98419.05
2017-08-17T16:51:57.842Z,98411.72
2017-08-17T16:54:26.215Z,98407.56
2017-08-17T16:56:54.588Z,98404.10
2017-08-17T16:59:22.955Z,98409.03
2017-08-17T17:01:51.596Z,98412.08
2017-08-17T17:04:19.950Z,98396.25
2017-08-17T17:06:49.061Z,98385.17
2017-08-17T17:09:17.464Z,98379.82
2017-08-17T17:11:45.825Z,98382.95
2017-08-17T17:14:14.173Z,98376.77
2017-08-17T17:16:42.577Z,98370.91
2017-08-17T17:19:11.991Z,98378.00
2017-08-17T17:21:40.352Z,98381.06
2017-08-17T17:24:08.709Z,98395.63
2017-08-17T17:26:37.615Z,98403.39
2017-08-17T17:29:05.985Z,98395.27
2017-08-17T17:31:34.364Z,98395.52
2017-08-17T17:34:03.195Z,98398.31
2017-08-17T17:36:31.625Z,98398.19
2017-08-17T17:38:59.967Z,98400.20
2017-08-17T17:41:28.369Z,98392.45
2017-08-17T17:43:56.747Z,98392.30
2017-08-17T17:46:25.514Z,98396.41
2017-08-17T17:48:54.285Z,98404.83
2017-08-17T17:51:22.639Z,98410.70
2017-08-17T17:53:51.012Z,98415.87
2017-08-17T17:56:19.380Z,98405.59
2017-08-17T17:58:47.711Z,98402.90
2017-08-17T18:01:16.236Z,98398.12
2017-08-17T18:03:47.202Z,98401.81
2017-08-17T18:06:15.563Z,98399.27
2017-08-17T18:08:43.920Z,98410.75
2017-08-17T18:11:13.087Z,98399.34
2017-08-17T18:13:41.469Z,98405.25
2017-08-17T18:16:10.454Z,98402.67
2017-08-17T18:18:39.097Z,98397.05
2017-08-17T18:21:07.445Z,98393.16
2017-08-17T18:23:36.073Z,98397.32
2017-08-17T18:26:04.481Z,98401.44
2017-08-17T18:28:33.609Z,98406.08
2017-08-17T18:31:01.973Z,98392.80
2017-08-17T18:33:30.308Z,98397.27
2017-08-17T18:35:58.670Z,98404.52
2017-08-17T18:38:26.984Z,98398.72
2017-08-17T18:40:55.860Z,98403.05
2017-08-17T18:43:24.186Z,98407.75
2017-08-17T18:45:52.518Z,98411.30
2017-08-17T18:48:20.908Z,98413.23
2017-08-17T18:50:49.253Z,98408.48
2017-08-17T18:53:18.008Z,98411.00
2017-08-17T18:55:46.465Z,98411.36
2017-08-17T18:58:14.813Z,98412.80
2017-08-17T19:00:43.198Z,98416.39
2017-08-17T19:03:11.532Z,98410.58
2017-08-17T19:05:39.898Z,98409.65
2017-08-17T19:08:08.238Z,98413.00
2017-08-17T19:10:36.905Z,98409.47
2017-08-17T19:13:05.253Z,98408.72
2017-08-17T19:15:34.418Z,98407.83
2017-08-17T19:18:02.776Z,98414.80
2017-08-17T19:20:31.116Z,98424.50
2017-08-17T19:22:59.489Z,98425.20
2017-08-17T19:25:27.829Z,98428.06
2017-08-17T19:27:56.477Z,98427.21
2017-08-17T19:30:24.901Z,98423.22
2017-08-17T19:32:53.224Z,98416.18
2017-08-17T19:35:21.596Z,98415.84
2017-08-17T19:37:50.688Z,98414.59
2017-08-17T19:40:19.039Z,98416.97
2017-08-17T19:43:33.571Z,98410.23
2017-08-17T19:46:01.957Z,98407.31
2017-08-17T19:48:30.387Z,98406.59
2017-08-17T19:50:59.250Z,98405.48
2017-08-17T19:53:27.576Z,98403.91
2017-08-17T19:55:55.927Z,98405.12
2017-08-17T19:58:24.347Z,98406.14
2017-08-17T20:00:52.733Z,98411.20
2017-08-17T20:03:21.090Z,98410.45
2017-08-17T20:05:49.481Z,98416.15
2017-08-17T20:08:17.920Z,98413.69
2017-08-17T20:10:47.799Z,98414.01
2017-08-17T20:13:16.416Z,98412.08
2017-08-17T20:15:44.759Z,98406.03
2017-08-17T20:18:13.110Z,98399.59
2017-08-17T20:20:41.464Z,98403.03
2017-08-17T20:23:09.791Z,98401.47
2017-08-17T20:25:38.154Z,98407.48
2017-08-17T20:28:06.490Z,98403.36
2017-08-17T20:30:35.116Z,98405.02
2017-08-17T20:33:03.459Z,98408.76
2017-08-17T20:35:31.815Z,98413.80
2017-08-17T20:38:00.169Z,98407.59
2017-08-17T20:40:28.501Z,98401.73
2017-08-17T20:42:56.874Z,98397.03
2017-08-17T20:45:25.211Z,98402.17
2017-08-17T20:47:54.558Z,98406.30
2017-08-17T20:50:22.896Z,98397.53
2017-08-17T20:52:51.257Z,98400.69
2017-08-17T20:55:19.622Z,98399.48
2017-08-17T20:57:47.962Z,98395.94
2017-08-17T21:00:16.917Z,98401.70
2017-08-17T21:02:45.242Z,98398.06
2017-08-17T21:05:13.622Z,98393.09
2017-08-17T21:07:41.978Z,98393.03
2017-08-17T21:10:10.323Z,98397.97
2017-08-17T21:12:38.684Z,98395.02
2017-08-17T21:15:07.032Z,98389.09
2017-08-17T21:17:35.406Z,98385.11
2017-08-17T21:20:03.748Z,98387.88
2017-08-17T21:22:32.097Z,98386.11
2017-08-17T21:25:00.443Z,98391.59
2017-08-17T21:27:28.802Z,98391.27
2017-08-17T21:29:57.212Z,98390.67
2017-08-17T21:32:25.564Z,98388.02
2017-08-17T21:34:53.924Z,98388.95
2017-08-17T21:37:22.258Z,98387.48
2017-08-17T21:39:50.613Z,98383.56
2017-08-17T21:42:18.997Z,98381.02
2017-08-17T21:44:47.341Z,98384.08
2017-08-17T21:47:15.696Z,98377.14
2017-08-17T21:49:44.041Z,98383.30
2017-08-17T21:52:12.397Z,98385.28
2017-08-17T21:54:40.722Z,98381.52
2017-08-17T21:57:09.070Z,98385.28
2017-08-17T21:59:37.424Z,98382.67
2017-08-17T22:02:05.757Z,98379.77
2017-08-17T22:04:34.101Z,98379.14
2017-08-17T22:07:02.421Z,98378.84
2017-08-17T22:09:30.835Z,98376.48
2017-08-17T22:11:59.176Z,98383.63
2017-08-17T22:14:27.514Z,98383.19
2017-08-17T22:16:55.847Z,98379.08
2017-08-17T22:19:24.177Z,98375.03
2017-08-17T22:21:52.511Z,98376.13
2017-08-17T22:24:20.829Z,98374.31
2017-08-17T22:26:49.434Z,98371.73
2017-08-17T22:29:17.775Z,98372.48
2017-08-17T22:31:46.173Z,98375.20
2017-08-17T22:34:14.532Z,98379.03
2017-08-17T22:36:42.865Z,98370.55
2017-08-17T22:39:11.271Z,98379.81
2017-08-17T22:41:39.600Z,98380.35
2017-08-17T22:44:08.206Z,98380.96
2017-08-17T22:46:36.537Z,98381.09
2017-08-17T22:49:04.878Z,98377.70
2017-08-17T22:51:33.226Z,98377.19
2017-08-17T22:54:01.569Z,98382.98
2017-08-17T22:56:29.932Z,98378.23
2017-08-17T22:58:58.282Z,98387.50
2017-08-17T23:01:26.885Z,98384.19
2017-08-17T23:03:55.227Z,98370.27
2017-08-17T23:06:23.555Z,98372.48
2017-08-17T23:08:51.887Z,98372.55
2017-08-17T23:11:20.217Z,98373.09
2017-08-17T23:13:48.562Z,98363.00
2017-08-17T23:16:17.505Z,98353.59
2017-08-17T23:18:46.473Z,98354.23
2017-08-17T23:21:15.276Z,98352.66
2017-08-17T23:23:44.181Z,98356.19
2017-08-17T23:26:13.277Z,98349.81
2017-08-17T23:28:42.277Z,98356.56
2017-08-17T23:31:11.171Z,98354.54
2017-08-17T23:33:40.027Z,98347.28
2017-08-17T23:36:08.368Z,98343.02
2017-08-17T23:38:36.701Z,98336.10
2017-08-17T23:41:05.063Z,98335.01
2017-08-17T23:43:33.425Z,98321.13
2017-08-17T23:46:01.757Z,98318.75
2017-08-17T23:48:30.106Z,98316.55
2017-08-17T23:50:58.445Z,98318.03
2017-08-17T23:53:26.796Z,98324.76
2017-08-17T23:55:55.135Z,98324.14
2017-08-17T23:58:23.470Z,98328.39
